sensor_id;sensor_type;location;lat;lon;timestamp;P1;durP1;ratioP1;P2;durP2;ratioP2
70744;SDS011;59284;31.390;34.904;2023-02-07T09:20:47;7.68;;;1.80;;
70744;SDS011;59284;31.390;34.904;2023-02-07T09:23:13;10.35;;;1.52;;
70744;SDS011;59284;31.390;34.904;2023-02-07T09:25:41;18.48;;;2.92;;
70744;SDS011;59284;31.390;34.904;2023-02-07T09:30:39;12.68;;;2.60;;
70744;SDS011;59284;31.390;34.904;2023-02-07T09:33:06;17.45;;;1.67;;
70744;SDS011;59284;31.390;34.904;2023-02-07T09:35:38;9.05;;;2.25;;
70744;SDS011;59284;31.390;34.904;2023-02-07T09:38:07;6.78;;;1.30;;
70744;SDS011;59284;31.390;34.904;2023-02-07T09:40:36;12.20;;;1.60;;
70744;SDS011;59284;31.390;34.904;2023-02-07T09:45:53;7.85;;;1.20;;
70744;SDS011;59284;31.390;34.904;2023-02-07T09:48:23;3.35;;;0.90;;
70744;SDS011;59284;31.390;34.904;2023-02-07T09:50:59;3.07;;;0.90;;
70744;SDS011;59284;31.390;34.904;2023-02-07T09:53:45;2.85;;;0.80;;
70744;SDS011;59284;31.390;34.904;2023-02-07T09:56:16;1.75;;;0.47;;
70744;SDS011;59284;31.390;34.904;2023-02-07T09:59:05;2.72;;;0.80;;
70744;SDS011;59284;31.390;34.904;2023-02-07T10:01:36;1.58;;;0.52;;
70744;SDS011;59284;31.390;34.904;2023-02-07T10:06:52;2.38;;;0.68;;
70744;SDS011;59284;31.390;34.904;2023-02-07T10:09:25;3.47;;;0.88;;
70744;SDS011;59284;31.390;34.904;2023-02-07T10:11:56;2.22;;;0.60;;
70744;SDS011;59284;31.390;34.904;2023-02-07T10:14:46;2.35;;;0.70;;
70744;SDS011;59284;31.390;34.904;2023-02-07T10:20:30;4.10;;;0.77;;
70744;SDS011;59284;31.390;34.904;2023-02-07T10:26:13;6.97;;;0.80;;
70744;SDS011;59284;31.390;34.904;2023-02-07T10:31:48;7.40;;;1.10;;
70744;SDS011;59284;31.390;34.904;2023-02-07T10:34:19;3.70;;;1.00;;
70744;SDS011;59284;31.390;34.904;2023-02-07T10:36:48;3.78;;;1.10;;
70744;SDS011;59284;31.390;34.904;2023-02-07T10:39:21;5.57;;;1.25;;
70744;SDS011;59284;31.390;34.904;2023-02-07T10:42:03;4.25;;;0.90;;
70744;SDS011;59284;31.390;34.904;2023-02-07T10:44:29;2.80;;;0.80;;
70744;SDS011;59284;31.390;34.904;2023-02-07T10:47:00;3.47;;;1.08;;
70744;SDS011;59284;31.390;34.904;2023-02-07T10:49:29;4.70;;;1.10;;
70744;SDS011;59284;31.390;34.904;2023-02-07T10:51:58;4.53;;;1.02;;
70744;SDS011;59284;31.390;34.904;2023-02-07T10:54:27;5.53;;;1.20;;
70744;SDS011;59284;31.390;34.904;2023-02-07T10:56:54;4.37;;;1.30;;
70744;SDS011;59284;31.390;34.904;2023-02-07T11:05:00;7.35;;;1.70;;
70744;SDS011;59284;31.390;34.904;2023-02-07T11:07:57;7.40;;;1.73;;
70744;SDS011;59284;31.390;34.904;2023-02-07T11:10:42;2.97;;;1.00;;
70744;SDS011;59284;31.390;34.904;2023-02-07T11:13:30;5.60;;;1.40;;
70744;SDS011;59284;31.390;34.904;2023-02-07T11:16:06;6.03;;;1.50;;
70744;SDS011;59284;31.390;34.904;2023-02-07T11:18:38;4.18;;;1.45;;
70744;SDS011;59284;31.390;34.904;2023-02-07T11:24:04;2.63;;;1.00;;
70744;SDS011;59284;31.390;34.904;2023-02-07T11:26:39;2.55;;;0.88;;
70744;SDS011;59284;31.390;34.904;2023-02-07T11:29:35;4.20;;;1.20;;
70744;SDS011;59284;31.390;34.904;2023-02-07T11:32:12;5.05;;;1.20;;
70744;SDS011;59284;31.390;34.904;2023-02-07T11:34:50;2.83;;;1.13;;
70744;SDS011;59284;31.390;34.904;2023-02-07T11:39:51;7.18;;;1.83;;
70744;SDS011;59284;31.390;34.904;2023-02-07T11:42:21;3.20;;;1.20;;
70744;SDS011;59284;31.390;34.904;2023-02-07T11:44:49;5.28;;;1.75;;
70744;SDS011;59284;31.390;34.904;2023-02-07T11:47:24;7.78;;;1.70;;
70744;SDS011;59284;31.390;34.904;2023-02-07T11:49:55;8.43;;;1.47;;
70744;SDS011;59284;31.390;34.904;2023-02-07T11:52:23;6.88;;;1.55;;
70744;SDS011;59284;31.390;34.904;2023-02-07T11:54:51;6.60;;;2.17;;
70744;SDS011;59284;31.390;34.904;2023-02-07T11:57:20;2.95;;;0.80;;
70744;SDS011;59284;31.390;34.904;2023-02-07T12:03:01;5.33;;;1.37;;
70744;SDS011;59284;31.390;34.904;2023-02-07T12:05:34;5.50;;;1.50;;
70744;SDS011;59284;31.390;34.904;2023-02-07T12:08:11;13.30;;;1.67;;
70744;SDS011;59284;31.390;34.904;2023-02-07T12:10:41;6.28;;;1.52;;
70744;SDS011;59284;31.390;34.904;2023-02-07T12:15:47;4.90;;;1.43;;
70744;SDS011;59284;31.390;34.904;2023-02-07T12:18:27;7.07;;;1.50;;
70744;SDS011;59284;31.390;34.904;2023-02-07T12:21:00;3.95;;;1.40;;
70744;SDS011;59284;31.390;34.904;2023-02-07T12:26:36;2.80;;;1.45;;
70744;SDS011;59284;31.390;34.904;2023-02-07T12:34:43;3.58;;;1.60;;
70744;SDS011;59284;31.390;34.904;2023-02-07T12:37:19;2.50;;;1.10;;
70744;SDS011;59284;31.390;34.904;2023-02-07T12:39:55;4.10;;;1.33;;
70744;SDS011;59284;31.390;34.904;2023-02-07T12:42:36;25.23;;;2.07;;
70744;SDS011;59284;31.390;34.904;2023-02-07T12:45:14;315.92;;;11.55;;
70744;SDS011;59284;31.390;34.904;2023-02-07T12:47:43;261.40;;;10.65;;
70744;SDS011;59284;31.390;34.904;2023-02-07T12:50:22;371.55;;;15.10;;
70744;SDS011;59284;31.390;34.904;2023-02-07T12:53:07;384.77;;;14.55;;
70744;SDS011;59284;31.390;34.904;2023-02-07T13:01:31;3.47;;;1.27;;
70744;SDS011;59284;31.390;34.904;2023-02-07T13:16:05;9.32;;;1.40;;
70744;SDS011;59284;31.390;34.904;2023-02-07T13:21:26;2.05;;;1.00;;
70744;SDS011;59284;31.390;34.904;2023-02-07T13:24:03;3.83;;;1.80;;
70744;SDS011;59284;31.390;34.904;2023-02-07T13:26:32;4.55;;;1.30;;
70744;SDS011;59284;31.390;34.904;2023-02-07T13:29:04;4.22;;;1.40;;
70744;SDS011;59284;31.390;34.904;2023-02-07T13:34:31;4.75;;;1.50;;
70744;SDS011;59284;31.390;34.904;2023-02-07T13:37:04;0.80;;;0.10;;
70744;SDS011;59284;31.390;34.904;2023-02-07T13:39:41;1.00;;;0.17;;
70744;SDS011;59284;31.390;34.904;2023-02-07T13:42:26;1.00;;;0.10;;
70744;SDS011;59284;31.390;34.904;2023-02-07T13:45:34;0.93;;;0.17;;
70744;SDS011;59284;31.390;34.904;2023-02-07T13:48:25;1.10;;;0.20;;
70744;SDS011;59284;31.390;34.904;2023-02-07T14:00:26;1.08;;;0.20;;
70744;SDS011;59284;31.390;34.904;2023-02-07T14:10:37;1.00;;;0.20;;
70744;SDS011;59284;31.390;34.904;2023-02-07T14:42:00;1.10;;;0.20;;
70744;SDS011;59284;31.390;34.904;2023-02-07T14:44:38;1.20;;;0.22;;
70744;SDS011;59284;31.390;34.904;2023-02-07T14:47:14;0.80;;;0.10;;
70744;SDS011;59284;31.390;34.904;2023-02-07T14:50:21;1.23;;;0.32;;
70744;SDS011;59284;31.390;34.904;2023-02-07T14:52:59;1.03;;;0.10;;
70744;SDS011;59284;31.390;34.904;2023-02-07T14:55:35;0.90;;;0.20;;
70744;SDS011;59284;31.390;34.904;2023-02-07T14:58:11;1.00;;;0.20;;
70744;SDS011;59284;31.390;34.904;2023-02-07T15:01:00;0.93;;;0.20;;
70744;SDS011;59284;31.390;34.904;2023-02-07T15:03:29;1.08;;;0.15;;
70744;SDS011;59284;31.390;34.904;2023-02-07T15:05:56;1.00;;;0.20;;
70744;SDS011;59284;31.390;34.904;2023-02-07T15:08:25;1.00;;;0.20;;
70744;SDS011;59284;31.390;34.904;2023-02-07T15:11:02;1.00;;;0.28;;
70744;SDS011;59284;31.390;34.904;2023-02-07T15:13:43;1.10;;;0.20;;
70744;SDS011;59284;31.390;34.904;2023-02-07T15:16:16;0.98;;;0.20;;
70744;SDS011;59284;31.390;34.904;2023-02-07T15:19:40;0.90;;;0.10;;
70744;SDS011;59284;31.390;34.904;2023-02-07T15:22:06;1.00;;;0.20;;
70744;SDS011;59284;31.390;34.904;2023-02-07T15:24:39;1.52;;;0.63;;
70744;SDS011;59284;31.390;34.904;2023-02-07T15:27:32;1.00;;;0.20;;
70744;SDS011;59284;31.390;34.904;2023-02-07T15:30:01;0.85;;;0.15;;
70744;SDS011;59284;31.390;34.904;2023-02-07T15:32:43;0.80;;;0.10;;
70744;SDS011;59284;31.390;34.904;2023-02-07T15:35:18;0.90;;;0.10;;
70744;SDS011;59284;31.390;34.904;2023-02-07T15:38:19;1.00;;;0.20;;
70744;SDS011;59284;31.390;34.904;2023-02-07T15:40:57;1.00;;;0.17;;
70744;SDS011;59284;31.390;34.904;2023-02-07T15:43:28;1.20;;;0.20;;
70744;SDS011;59284;31.390;34.904;2023-02-07T15:48:24;1.00;;;0.10;;
70744;SDS011;59284;31.390;34.904;2023-02-07T15:50:53;1.10;;;0.20;;
70744;SDS011;59284;31.390;34.904;2023-02-07T15:53:24;1.37;;;0.90;;
70744;SDS011;59284;31.390;34.904;2023-02-07T15:55:52;1.00;;;0.13;;
70744;SDS011;59284;31.390;34.904;2023-02-07T15:58:22;1.00;;;0.10;;
70744;SDS011;59284;31.390;34.904;2023-02-07T16:00:53;0.95;;;0.20;;
70744;SDS011;59284;31.390;34.904;2023-02-07T16:03:27;1.20;;;0.30;;
70744;SDS011;59284;31.390;34.904;2023-02-07T16:06:11;1.00;;;0.20;;
70744;SDS011;59284;31.390;34.904;2023-02-07T16:08:49;0.88;;;0.20;;
70744;SDS011;59284;31.390;34.904;2023-02-07T16:16:25;1.27;;;0.20;;
70744;SDS011;59284;31.390;34.904;2023-02-07T16:21:56;1.08;;;0.20;;
70744;SDS011;59284;31.390;34.904;2023-02-07T16:24:30;1.23;;;0.28;;
70744;SDS011;59284;31.390;34.904;2023-02-07T16:33:39;1.13;;;0.20;;
70744;SDS011;59284;31.390;34.904;2023-02-07T16:36:09;1.10;;;0.20;;
70744;SDS011;59284;31.390;34.904;2023-02-07T16:38:39;0.90;;;0.10;;
70744;SDS011;59284;31.390;34.904;2023-02-07T16:44:24;36.95;;;14.63;;
70744;SDS011;59284;31.390;34.904;2023-02-07T16:47:05;1.10;;;0.20;;
70744;SDS011;59284;31.390;34.904;2023-02-07T16:49:42;1.10;;;0.20;;
70744;SDS011;59284;31.390;34.904;2023-02-07T16:52:09;1.17;;;0.20;;
70744;SDS011;59284;31.390;34.904;2023-02-07T16:54:35;0.93;;;0.15;;
70744;SDS011;59284;31.390;34.904;2023-02-07T16:57:01;0.93;;;0.10;;
70744;SDS011;59284;31.390;34.904;2023-02-07T16:59:27;1.00;;;0.20;;
70744;SDS011;59284;31.390;34.904;2023-02-07T17:01:55;1.05;;;0.20;;
70744;SDS011;59284;31.390;34.904;2023-02-07T17:07:02;1.00;;;0.20;;
70744;SDS011;59284;31.390;34.904;2023-02-07T17:09:28;1.00;;;0.10;;
70744;SDS011;59284;31.390;34.904;2023-02-07T17:11:54;1.00;;;0.28;;
70744;SDS011;59284;31.390;34.904;2023-02-07T17:14:20;1.00;;;0.30;;
70744;SDS011;59284;31.390;34.904;2023-02-07T17:16:46;1.20;;;0.30;;
70744;SDS011;59284;31.390;34.904;2023-02-07T17:21:44;1.10;;;0.30;;
70744;SDS011;59284;31.390;34.904;2023-02-07T17:24:13;1.08;;;0.20;;
70744;SDS011;59284;31.390;34.904;2023-02-07T17:26:42;1.00;;;0.20;;
70744;SDS011;59284;31.390;34.904;2023-02-07T17:29:11;0.95;;;0.20;;
70744;SDS011;59284;31.390;34.904;2023-02-07T17:31:44;1.10;;;0.22;;
70744;SDS011;59284;31.390;34.904;2023-02-07T17:34:13;1.10;;;0.22;;
70744;SDS011;59284;31.390;34.904;2023-02-07T17:36:47;1.20;;;0.27;;
70744;SDS011;59284;31.390;34.904;2023-02-07T17:39:18;0.80;;;0.10;;
70744;SDS011;59284;31.390;34.904;2023-02-07T17:41:50;1.10;;;0.20;;
70744;SDS011;59284;31.390;34.904;2023-02-07T17:44:16;1.10;;;0.10;;
70744;SDS011;59284;31.390;34.904;2023-02-07T17:46:45;1.00;;;0.20;;
70744;SDS011;59284;31.390;34.904;2023-02-07T17:49:14;1.10;;;0.20;;
70744;SDS011;59284;31.390;34.904;2023-02-07T17:51:41;1.02;;;0.22;;
70744;SDS011;59284;31.390;34.904;2023-02-07T17:54:07;1.00;;;0.20;;
70744;SDS011;59284;31.390;34.904;2023-02-07T17:56:33;0.88;;;0.10;;
70744;SDS011;59284;31.390;34.904;2023-02-07T17:59:00;0.93;;;0.20;;
70744;SDS011;59284;31.390;34.904;2023-02-07T18:01:30;1.10;;;0.20;;
70744;SDS011;59284;31.390;34.904;2023-02-07T18:04:06;1.10;;;0.20;;
70744;SDS011;59284;31.390;34.904;2023-02-07T18:06:35;0.95;;;0.10;;
70744;SDS011;59284;31.390;34.904;2023-02-07T18:09:01;1.30;;;0.30;;
70744;SDS011;59284;31.390;34.904;2023-02-07T18:11:27;4.10;;;3.70;;
70744;SDS011;59284;31.390;34.904;2023-02-07T18:14:03;1.20;;;0.20;;
70744;SDS011;59284;31.390;34.904;2023-02-07T18:16:35;1.40;;;0.30;;
70744;SDS011;59284;31.390;34.904;2023-02-07T18:19:09;1.08;;;0.13;;
70744;SDS011;59284;31.390;34.904;2023-02-07T18:21:41;0.85;;;0.20;;
70744;SDS011;59284;31.390;34.904;2023-02-07T18:24:10;1.00;;;0.30;;
70744;SDS011;59284;31.390;34.904;2023-02-07T18:26:36;1.07;;;0.20;;
70744;SDS011;59284;31.390;34.904;2023-02-07T18:29:02;0.90;;;0.20;;
70744;SDS011;59284;31.390;34.904;2023-02-07T18:31:28;0.90;;;0.10;;
70744;SDS011;59284;31.390;34.904;2023-02-07T18:33:54;1.20;;;0.33;;
70744;SDS011;59284;31.390;34.904;2023-02-07T18:36:21;1.13;;;0.20;;
70744;SDS011;59284;31.390;34.904;2023-02-07T18:38:48;1.05;;;0.28;;
70744;SDS011;59284;31.390;34.904;2023-02-07T18:41:15;1.00;;;0.20;;
70744;SDS011;59284;31.390;34.904;2023-02-07T18:43:44;1.00;;;0.15;;
70744;SDS011;59284;31.390;34.904;2023-02-07T18:46:15;1.20;;;0.50;;
70744;SDS011;59284;31.390;34.904;2023-02-07T18:48:43;0.82;;;0.15;;
70744;SDS011;59284;31.390;34.904;2023-02-07T18:51:10;1.08;;;0.20;;
70744;SDS011;59284;31.390;34.904;2023-02-07T18:53:41;1.00;;;0.20;;
70744;SDS011;59284;31.390;34.904;2023-02-07T18:56:23;1.17;;;0.52;;
70744;SDS011;59284;31.390;34.904;2023-02-07T18:58:50;1.00;;;0.20;;
70744;SDS011;59284;31.390;34.904;2023-02-07T19:01:23;1.08;;;0.15;;
70744;SDS011;59284;31.390;34.904;2023-02-07T19:03:56;1.00;;;0.20;;
70744;SDS011;59284;31.390;34.904;2023-02-07T19:06:29;1.38;;;0.30;;
70744;SDS011;59284;31.390;34.904;2023-02-07T19:08:58;1.05;;;0.20;;
70744;SDS011;59284;31.390;34.904;2023-02-07T19:11:24;1.00;;;0.20;;
70744;SDS011;59284;31.390;34.904;2023-02-07T19:13:51;1.00;;;0.20;;
70744;SDS011;59284;31.390;34.904;2023-02-07T19:16:26;1.05;;;0.20;;
70744;SDS011;59284;31.390;34.904;2023-02-07T19:18:54;1.40;;;0.50;;
70744;SDS011;59284;31.390;34.904;2023-02-07T19:21:23;1.00;;;0.10;;
70744;SDS011;59284;31.390;34.904;2023-02-07T19:23:53;1.00;;;0.10;;
70744;SDS011;59284;31.390;34.904;2023-02-07T19:26:20;1.10;;;0.20;;
70744;SDS011;59284;31.390;34.904;2023-02-07T19:28:48;1.17;;;0.20;;
70744;SDS011;59284;31.390;34.904;2023-02-07T19:31:16;1.10;;;0.22;;
70744;SDS011;59284;31.390;34.904;2023-02-07T19:33:44;1.07;;;0.20;;
70744;SDS011;59284;31.390;34.904;2023-02-07T19:36:15;1.15;;;0.15;;
70744;SDS011;59284;31.390;34.904;2023-02-07T19:38:42;1.10;;;0.15;;
70744;SDS011;59284;31.390;34.904;2023-02-07T19:41:08;1.20;;;0.30;;
70744;SDS011;59284;31.390;34.904;2023-02-07T19:43:34;1.20;;;0.30;;
70744;SDS011;59284;31.390;34.904;2023-02-07T19:46:01;1.17;;;0.30;;
70744;SDS011;59284;31.390;34.904;2023-02-07T19:48:27;1.20;;;0.20;;
70744;SDS011;59284;31.390;34.904;2023-02-07T19:50:58;1.10;;;0.20;;
70744;SDS011;59284;31.390;34.904;2023-02-07T19:53:25;1.10;;;0.10;;
70744;SDS011;59284;31.390;34.904;2023-02-07T19:55:52;0.87;;;0.10;;
70744;SDS011;59284;31.390;34.904;2023-02-07T19:58:20;0.95;;;0.20;;
70744;SDS011;59284;31.390;34.904;2023-02-07T20:00:46;1.17;;;0.28;;
70744;SDS011;59284;31.390;34.904;2023-02-07T20:03:14;1.00;;;0.20;;
70744;SDS011;59284;31.390;34.904;2023-02-07T20:05:43;1.27;;;0.40;;
70744;SDS011;59284;31.390;34.904;2023-02-07T20:08:09;1.20;;;0.20;;
70744;SDS011;59284;31.390;34.904;2023-02-07T20:10:39;1.10;;;0.17;;
70744;SDS011;59284;31.390;34.904;2023-02-07T20:13:07;1.20;;;0.30;;
70744;SDS011;59284;31.390;34.904;2023-02-07T20:15:33;1.13;;;0.22;;
70744;SDS011;59284;31.390;34.904;2023-02-07T20:18:03;1.03;;;0.20;;
70744;SDS011;59284;31.390;34.904;2023-02-07T20:20:51;1.20;;;0.30;;
70744;SDS011;59284;31.390;34.904;2023-02-07T20:23:17;1.00;;;0.10;;
70744;SDS011;59284;31.390;34.904;2023-02-07T20:25:42;1.10;;;0.20;;
70744;SDS011;59284;31.390;34.904;2023-02-07T20:28:08;1.10;;;0.20;;
70744;SDS011;59284;31.390;34.904;2023-02-07T20:30:34;1.00;;;0.13;;
70744;SDS011;59284;31.390;34.904;2023-02-07T20:33:09;1.20;;;0.30;;
70744;SDS011;59284;31.390;34.904;2023-02-07T20:35:36;1.00;;;0.13;;
70744;SDS011;59284;31.390;34.904;2023-02-07T20:38:02;1.10;;;0.20;;
70744;SDS011;59284;31.390;34.904;2023-02-07T20:40:28;1.17;;;0.35;;
70744;SDS011;59284;31.390;34.904;2023-02-07T20:42:54;1.10;;;0.30;;
70744;SDS011;59284;31.390;34.904;2023-02-07T20:45:20;1.10;;;0.20;;
70744;SDS011;59284;31.390;34.904;2023-02-07T20:47:46;1.00;;;0.10;;
70744;SDS011;59284;31.390;34.904;2023-02-07T20:50:14;1.10;;;0.15;;
70744;SDS011;59284;31.390;34.904;2023-02-07T20:52:40;1.10;;;0.20;;
70744;SDS011;59284;31.390;34.904;2023-02-07T20:55:09;1.00;;;0.10;;
70744;SDS011;59284;31.390;34.904;2023-02-07T20:57:35;0.90;;;0.20;;
70744;SDS011;59284;31.390;34.904;2023-02-07T21:00:00;1.20;;;0.30;;
70744;SDS011;59284;31.390;34.904;2023-02-07T21:02:26;1.20;;;0.22;;
70744;SDS011;59284;31.390;34.904;2023-02-07T21:04:52;1.20;;;0.22;;
70744;SDS011;59284;31.390;34.904;2023-02-07T21:07:18;1.10;;;0.20;;
70744;SDS011;59284;31.390;34.904;2023-02-07T21:09:44;1.10;;;0.20;;
70744;SDS011;59284;31.390;34.904;2023-02-07T21:12:10;1.10;;;0.20;;
70744;SDS011;59284;31.390;34.904;2023-02-07T21:14:36;1.20;;;0.30;;
70744;SDS011;59284;31.390;34.904;2023-02-07T21:17:04;1.07;;;0.10;;
70744;SDS011;59284;31.390;34.904;2023-02-07T21:19:33;1.13;;;0.30;;
70744;SDS011;59284;31.390;34.904;2023-02-07T21:22:01;1.10;;;0.25;;
70744;SDS011;59284;31.390;34.904;2023-02-07T21:24:27;1.00;;;0.17;;
70744;SDS011;59284;31.390;34.904;2023-02-07T21:26:54;1.27;;;0.30;;
70744;SDS011;59284;31.390;34.904;2023-02-07T21:29:30;1.03;;;0.27;;
70744;SDS011;59284;31.390;34.904;2023-02-07T21:31:58;1.10;;;0.22;;
70744;SDS011;59284;31.390;34.904;2023-02-07T21:34:33;1.10;;;0.20;;
70744;SDS011;59284;31.390;34.904;2023-02-07T21:37:19;1.00;;;0.20;;
70744;SDS011;59284;31.390;34.904;2023-02-07T21:39:47;1.10;;;0.30;;
70744;SDS011;59284;31.390;34.904;2023-02-07T21:42:13;1.00;;;0.10;;
70744;SDS011;59284;31.390;34.904;2023-02-07T21:44:40;1.00;;;0.20;;
70744;SDS011;59284;31.390;34.904;2023-02-07T21:47:09;1.20;;;0.30;;
70744;SDS011;59284;31.390;34.904;2023-02-07T21:49:45;1.10;;;0.20;;
70744;SDS011;59284;31.390;34.904;2023-02-07T21:52:14;1.10;;;0.20;;
70744;SDS011;59284;31.390;34.904;2023-02-07T21:54:50;1.02;;;0.20;;
70744;SDS011;59284;31.390;34.904;2023-02-07T21:57:19;1.10;;;0.20;;
70744;SDS011;59284;31.390;34.904;2023-02-07T21:59:47;1.10;;;0.20;;
70744;SDS011;59284;31.390;34.904;2023-02-07T22:02:16;1.10;;;0.20;;
70744;SDS011;59284;31.390;34.904;2023-02-07T22:04:42;1.40;;;0.83;;
70744;SDS011;59284;31.390;34.904;2023-02-07T22:07:08;1.20;;;0.45;;
70744;SDS011;59284;31.390;34.904;2023-02-07T22:09:36;1.00;;;0.20;;
70744;SDS011;59284;31.390;34.904;2023-02-07T22:12:02;1.17;;;0.30;;
70744;SDS011;59284;31.390;34.904;2023-02-07T22:14:31;0.95;;;0.10;;
70744;SDS011;59284;31.390;34.904;2023-02-07T22:16:57;1.00;;;0.10;;
70744;SDS011;59284;31.390;34.904;2023-02-07T22:19:27;1.10;;;0.20;;
70744;SDS011;59284;31.390;34.904;2023-02-07T22:21:53;1.07;;;0.20;;
70744;SDS011;59284;31.390;34.904;2023-02-07T22:24:19;0.93;;;0.13;;
70744;SDS011;59284;31.390;34.904;2023-02-07T22:26:45;1.10;;;0.30;;
70744;SDS011;59284;31.390;34.904;2023-02-07T22:29:11;1.15;;;0.30;;
70744;SDS011;59284;31.390;34.904;2023-02-07T22:31:42;1.20;;;0.30;;
70744;SDS011;59284;31.390;34.904;2023-02-07T22:34:12;1.00;;;0.20;;
70744;SDS011;59284;31.390;34.904;2023-02-07T22:36:41;1.00;;;0.10;;
70744;SDS011;59284;31.390;34.904;2023-02-07T22:39:10;1.20;;;0.40;;
70744;SDS011;59284;31.390;34.904;2023-02-07T22:41:37;1.02;;;0.20;;
70744;SDS011;59284;31.390;34.904;2023-02-07T22:44:03;1.00;;;0.20;;
70744;SDS011;59284;31.390;34.904;2023-02-07T22:46:36;1.20;;;0.30;;
70744;SDS011;59284;31.390;34.904;2023-02-07T22:49:10;1.10;;;0.20;;
70744;SDS011;59284;31.390;34.904;2023-02-07T22:51:39;1.20;;;0.40;;
70744;SDS011;59284;31.390;34.904;2023-02-07T22:54:11;1.00;;;0.10;;
70744;SDS011;59284;31.390;34.904;2023-02-07T22:56:54;1.00;;;0.20;;
70744;SDS011;59284;31.390;34.904;2023-02-07T22:59:20;1.10;;;0.28;;
70744;SDS011;59284;31.390;34.904;2023-02-07T23:01:54;1.02;;;0.15;;
70744;SDS011;59284;31.390;34.904;2023-02-07T23:04:26;1.00;;;0.20;;
70744;SDS011;59284;31.390;34.904;2023-02-07T23:06:55;1.05;;;0.20;;
70744;SDS011;59284;31.390;34.904;2023-02-07T23:09:32;1.00;;;0.20;;
70744;SDS011;59284;31.390;34.904;2023-02-07T23:11:58;1.20;;;0.40;;
70744;SDS011;59284;31.390;34.904;2023-02-07T23:14:24;1.10;;;0.30;;
70744;SDS011;59284;31.390;34.904;2023-02-07T23:16:50;1.00;;;0.10;;
70744;SDS011;59284;31.390;34.904;2023-02-07T23:19:19;1.30;;;0.40;;
70744;SDS011;59284;31.390;34.904;2023-02-07T23:21:47;1.17;;;0.30;;
70744;SDS011;59284;31.390;34.904;2023-02-07T23:24:16;1.20;;;0.30;;
70744;SDS011;59284;31.390;34.904;2023-02-07T23:26:44;1.10;;;0.20;;
70744;SDS011;59284;31.390;34.904;2023-02-07T23:29:14;1.13;;;0.20;;
70744;SDS011;59284;31.390;34.904;2023-02-07T23:31:40;1.13;;;0.30;;
70744;SDS011;59284;31.390;34.904;2023-02-07T23:34:08;1.00;;;0.20;;
70744;SDS011;59284;31.390;34.904;2023-02-07T23:36:38;1.00;;;0.10;;
70744;SDS011;59284;31.390;34.904;2023-02-07T23:39:04;1.20;;;0.20;;
70744;SDS011;59284;31.390;34.904;2023-02-07T23:41:32;1.20;;;0.30;;
70744;SDS011;59284;31.390;34.904;2023-02-07T23:43:58;1.00;;;0.20;;
70744;SDS011;59284;31.390;34.904;2023-02-07T23:46:27;1.08;;;0.20;;
70744;SDS011;59284;31.390;34.904;2023-02-07T23:48:54;1.20;;;0.30;;
70744;SDS011;59284;31.390;34.904;2023-02-07T23:51:26;1.10;;;0.20;;
70744;SDS011;59284;31.390;34.904;2023-02-07T23:53:53;1.10;;;0.20;;
70744;SDS011;59284;31.390;34.904;2023-02-07T23:56:19;1.10;;;0.17;;
70744;SDS011;59284;31.390;34.904;2023-02-07T23:58:49;1.00;;;0.20;;
